Coronel Enrique Soto Cano Air Base

Jump to: basic info | weather | frequencies | runways | comments

Related pages: nearby airports | nearby navaids | notams | map

Basic information (top)

Codes: XPL MHSC
Location: lon 14.382400, lat -87.621201, elev 2,061 ft / 628 m msl
Status: medium_airport

Weather (top)

Current conditions (rec'd 2014/10/24 13:58Z):

MHSC 241358Z AUTO 19003KT 9999 SCT017 22/22 A3000 RMK AO2 SLP124 T02230222 $

Airport forecast (rec'd 2014/06/05 12:00Z):

TAF MHSC 051200Z 0512/0618 VRB06KT 9999 FEW050 SCT150 QNH2984INS 
      BECMG 0520/0521 14012KT 8000 -TSRA SCT050CB BKN100 QNH2979INS 
      BECMG 0600/0601 VRB06KT 9000 -SHRA BKN040 BKN150 QNH2983INS 
      BECMG 0605/0606 VRB06KT 9999 NSW SCT035 BKN180 QNH2988INS TX32/0519Z TN22/0609Z

Frequencies (top)

Verify before use: may be inaccurate or out of date.

AAS: 125.8 MHz (VFR ADVSY SVC)
ACC: 89.1 MHz (CENAMER ACC)
APP: 125.8 MHz (APP)
GND: 121.9 MHz (GND)
MISC: 42.5 MHz (SKYWATCH AFFS)
OPS: 51.5 MHz (WARRIOR OPS)
PMSV: 34.06 MHz (PMSV METRO)
POST: 33.13 MHz (COMD POST)
PTD: 135.5 MHz (PTD)
RDO: 126.7 MHz (TEGUCIGALPA RDO)
TWR: 118.9 MHz (TWR)

Runways (top)

17/35: 8,008 x 148 ft (2,441 x 45 m) — paved — lighted

Latest comments (top)

New international airport: The Honduras government wants to ... [read]

More... (top)

See also NOTAMs and nearby airports and navaids, or visit the Coronel Enrique Soto Cano Air Base page at the main OurAirports website..